Time;durP1;ratioP1;P1;durP2;ratioP2;P2;SDS_P1;SDS_P2;PMS_P1;PMS_P2;Temp;Humidity;BMP_temperature;BMP_pressure;BME280_temperature;BME280_humidity;BME280_pressure;Samples;Min_cycle;Max_cycle;Signal;HPM_P1;HPM_P2
2022/12/01 00:01:20;;;;;;;38.37;21.27;;;3.90;1.00;;;;;;4992968;28;20185;-53
2022/12/01 00:03:46;;;;;;;41.93;20.83;;;3.90;1.00;;;;;;4992992;28;20184;-54
2022/12/01 00:06:17;;;;;;;36.43;21.00;;;4.00;1.00;;;;;;4992819;28;20185;-53
2022/12/01 00:10:24;;;;;;;41.13;21.10;;;4.00;1.00;;;;;;4992881;28;20201;-54
2022/12/01 00:11:31;;;;;;;34.07;19.37;;;4.00;1.00;;;;;;4995021;28;20801;-55
2022/12/01 00:13:56;;;;;;;37.03;20.77;;;4.10;1.00;;;;;;4996348;28;20473;-55
2022/12/01 00:16:22;;;;;;;33.13;19.30;;;4.20;1.00;;;;;;4996001;28;20446;-55
2022/12/01 00:18:52;;;;;;;42.27;22.10;;;4.20;1.00;;;;;;4996477;28;20217;-56
2022/12/01 00:21:22;;;;;;;35.00;18.87;;;4.30;1.00;;;;;;4996030;28;20207;-56
2022/12/01 00:23:50;;;;;;;37.63;20.10;;;4.20;1.00;;;;;;4996123;28;20440;-54
2022/12/01 00:26:17;;;;;;;38.00;21.10;;;4.10;1.00;;;;;;4996097;28;20933;-54
2022/12/01 00:28:43;;;;;;;41.10;20.87;;;4.00;1.00;;;;;;4995876;28;20448;-53
2022/12/01 00:31:10;;;;;;;40.10;22.10;;;3.90;1.00;;;;;;4996070;28;20450;-55
2022/12/01 00:33:37;;;;;;;44.40;21.97;;;4.00;1.00;;;;;;4995756;28;20562;-55
2022/12/01 00:36:03;;;;;;;40.50;20.60;;;4.00;1.00;;;;;;4995854;28;20847;-54
2022/12/01 00:38:29;;;;;;;36.73;20.57;;;4.00;1.00;;;;;;4995812;28;20480;-54
2022/12/01 00:40:55;;;;;;;38.57;19.10;;;4.00;1.00;;;;;;4995695;28;20436;-56
2022/12/01 00:43:20;;;;;;;39.43;20.57;;;3.90;1.00;;;;;;4995748;28;20428;-55
2022/12/01 00:45:46;;;;;;;41.33;22.13;;;3.90;1.00;;;;;;4995435;28;20265;-54
2022/12/01 00:48:12;;;;;;;37.27;20.17;;;3.90;1.00;;;;;;4995650;28;20676;-55
2022/12/01 00:50:37;;;;;;;41.57;22.70;;;3.90;1.00;;;;;;4995868;28;20197;-54
2022/12/01 00:53:03;;;;;;;42.80;20.63;;;4.00;1.00;;;;;;4995669;28;20673;-54
2022/12/01 00:55:28;;;;;;;37.67;20.40;;;4.00;1.00;;;;;;4995689;28;20200;-54
2022/12/01 00:57:54;;;;;;;36.10;20.30;;;4.00;1.00;;;;;;4995667;28;20221;-54
2022/12/01 01:00:20;;;;;;;41.43;21.27;;;4.00;1.00;;;;;;4995319;28;20216;-55
2022/12/01 01:02:46;;;;;;;41.97;21.43;;;4.00;1.00;;;;;;4995933;28;20191;-54
2022/12/01 01:05:12;;;;;;;37.50;21.47;;;4.10;1.00;;;;;;4995342;28;20936;-55
2022/12/01 01:07:37;;;;;;;32.07;19.00;;;4.00;1.00;;;;;;4995449;28;20653;-55
2022/12/01 01:10:04;;;;;;;37.47;20.40;;;4.00;1.00;;;;;;4995320;28;20782;-55
2022/12/01 01:12:29;;;;;;;42.80;23.47;;;4.00;1.00;;;;;;4994907;28;20189;-53
2022/12/01 01:14:55;;;;;;;44.30;21.87;;;3.90;1.00;;;;;;4995405;28;20495;-53
2022/12/01 01:17:21;;;;;;;47.30;22.20;;;3.90;1.00;;;;;;4995371;28;20213;-55
2022/12/01 01:19:46;;;;;;;42.50;21.40;;;3.80;1.00;;;;;;4989550;28;20277;-54
2022/12/01 01:22:12;;;;;;;35.93;19.30;;;3.70;1.00;;;;;;4975814;28;20174;-54
2022/12/01 01:24:37;;;;;;;36.00;18.27;;;3.50;1.00;;;;;;4975861;28;20691;-54
2022/12/01 01:27:04;;;;;;;38.47;20.43;;;3.50;1.00;;;;;;4975692;28;20199;-55
2022/12/01 01:29:31;;;;;;;39.73;21.33;;;3.50;1.00;;;;;;4975436;28;20264;-55
2022/12/01 01:31:57;;;;;;;37.93;18.33;;;3.60;1.00;;;;;;4975639;28;20441;-55
2022/12/01 01:34:22;;;;;;;36.80;20.40;;;3.70;1.00;;;;;;4975608;28;20499;-54
2022/12/01 01:36:48;;;;;;;34.37;19.37;;;3.80;1.00;;;;;;4975424;28;20869;-55
2022/12/01 01:39:15;;;;;;;40.90;19.83;;;3.80;1.00;;;;;;4975340;28;20185;-55
2022/12/01 01:41:40;;;;;;;39.10;20.60;;;3.70;1.00;;;;;;4975341;28;20927;-55
2022/12/01 01:44:43;;;;;;;35.67;18.87;;;3.60;1.00;;;;;;4975118;28;20444;-55
2022/12/01 01:47:09;;;;;;;37.87;20.27;;;3.50;1.00;;;;;;4975106;28;20291;-55
2022/12/01 01:49:35;;;;;;;38.10;20.17;;;3.50;1.00;;;;;;4975057;28;20403;-53
2022/12/01 01:52:03;;;;;;;36.40;19.00;;;3.60;1.00;;;;;;4975011;28;20830;-54
2022/12/01 01:54:42;;;;;;;38.13;18.23;;;3.60;1.00;;;;;;4975265;28;20527;-54
2022/12/01 01:57:10;;;;;;;39.90;19.37;;;3.50;1.00;;;;;;4974873;28;20523;-54
2022/12/01 01:59:43;;;;;;;37.53;19.17;;;3.40;1.00;;;;;;4975327;28;20914;-54
2022/12/01 02:02:11;;;;;;;45.00;22.17;;;3.30;1.00;;;;;;4975241;28;20460;-56
2022/12/01 02:04:43;;;;;;;39.43;20.40;;;3.30;1.00;;;;;;4974826;28;20488;-54
2022/12/01 02:07:12;;;;;;;37.37;19.80;;;3.50;1.00;;;;;;4974954;28;20491;-53
2022/12/01 02:09:37;;;;;;;36.83;20.20;;;3.60;1.00;;;;;;4975059;28;20443;-54
2022/12/01 02:12:29;;;;;;;36.30;19.63;;;3.80;1.00;;;;;;4974988;28;20433;-56
2022/12/01 02:15:26;;;;;;;39.63;21.10;;;3.80;1.00;;;;;;4974776;28;20185;-56
2022/12/01 02:18:10;;;;;;;35.93;19.97;;;3.80;1.00;;;;;;4974853;28;20465;-56
2022/12/01 02:21:01;;;;;;;37.60;20.20;;;3.90;1.00;;;;;;4957194;28;20528;-55
2022/12/01 02:23:35;;;;;;;33.50;18.27;;;3.80;1.00;;;;;;4974721;28;20432;-53
2022/12/01 02:26:45;;;;;;;37.80;20.27;;;3.70;1.00;;;;;;4974597;28;20835;-56
2022/12/01 02:29:29;;;;;;;36.87;18.37;;;3.50;1.00;;;;;;4947001;28;20444;-56
2022/12/01 02:32:30;;;;;;;40.47;20.50;;;3.40;1.00;;;;;;4974529;28;20426;-54
2022/12/01 02:35:02;;;;;;;40.33;19.77;;;3.40;1.00;;;;;;4974088;28;20462;-55
2022/12/01 02:37:45;;;;;;;45.10;20.60;;;3.50;1.00;;;;;;4974406;28;20985;-54
2022/12/01 02:40:25;;;;;;;37.50;20.37;;;3.60;1.00;;;;;;4974291;28;20946;-54
2022/12/01 02:42:53;;;;;;;43.27;20.80;;;3.80;1.00;;;;;;4974259;28;20531;-54
2022/12/01 02:46:02;;;;;;;42.73;20.67;;;3.80;1.00;;;;;;4985566;28;20425;-55
2022/12/01 02:48:33;;;;;;;42.63;19.03;;;3.90;1.00;;;;;;4993407;28;20422;-54
2022/12/01 02:51:12;;;;;;;38.33;19.00;;;4.00;1.00;;;;;;4993403;28;20431;-54
2022/12/01 02:53:38;;;;;;;41.00;18.77;;;3.90;1.00;;;;;;4993688;28;20436;-55
2022/12/01 02:56:06;;;;;;;41.03;21.60;;;3.90;1.00;;;;;;4993718;28;20838;-54
2022/12/01 02:58:32;;;;;;;42.93;18.40;;;3.80;1.00;;;;;;4993759;28;20681;-55
2022/12/01 03:01:17;;;;;;;35.40;17.83;;;3.80;1.00;;;;;;4993370;28;20438;-54
2022/12/01 03:04:17;;;;;;;43.00;20.63;;;3.80;1.00;;;;;;4993989;28;20189;-55
2022/12/01 03:07:07;;;;;;;40.87;20.57;;;3.70;1.00;;;;;;4917796;29;20977;-55
2022/12/01 03:09:45;;;;;;;38.57;17.77;;;3.80;1.00;;;;;;4990507;28;20436;-54
2022/12/01 03:12:36;;;;;;;42.17;20.67;;;3.90;1.00;;;;;;4993411;28;20430;-53
2022/12/01 03:15:06;;;;;;;43.83;19.60;;;3.90;1.00;;;;;;4993472;28;20410;-55
2022/12/01 03:18:03;;;;;;;47.03;21.27;;;4.00;1.00;;;;;;4993107;28;20463;-56
2022/12/01 03:21:21;;;;;;;40.97;20.03;;;3.90;1.00;;;;;;4987545;28;20449;-54
2022/12/01 03:23:55;;;;;;;46.03;21.37;;;4.00;1.00;;;;;;4976011;28;20444;-54
2022/12/01 03:26:23;;;;;;;41.73;20.00;;;4.00;1.00;;;;;;4993429;28;20912;-53
2022/12/01 03:28:54;;;;;;;34.70;17.97;;;4.10;1.00;;;;;;4992990;28;20505;-55
2022/12/01 03:31:24;;;;;;;39.77;20.10;;;4.00;1.00;;;;;;4993566;28;20442;-55
2022/12/01 03:33:59;;;;;;;38.90;20.13;;;4.00;1.00;;;;;;4993023;28;20900;-55
2022/12/01 03:36:31;;;;;;;42.70;19.77;;;4.10;1.00;;;;;;4993696;28;20473;-55
2022/12/01 03:39:02;;;;;;;43.00;19.67;;;4.10;1.00;;;;;;4993009;28;20977;-56
2022/12/01 03:41:39;;;;;;;54.47;22.07;;;4.10;1.00;;;;;;4993176;28;20403;-54
2022/12/01 03:44:14;;;;;;;42.63;20.87;;;4.10;1.00;;;;;;4993134;28;20782;-55
2022/12/01 03:46:50;;;;;;;48.70;21.53;;;4.20;1.00;;;;;;4995613;28;20675;-55
2022/12/01 03:49:18;;;;;;;41.60;21.00;;;4.20;1.00;;;;;;4996680;28;20448;-54
2022/12/01 03:51:46;;;;;;;47.27;20.70;;;4.30;1.00;;;;;;4996811;28;20443;-56
2022/12/01 03:54:28;;;;;;;43.43;21.73;;;4.20;1.00;;;;;;4996863;28;20841;-55
2022/12/01 03:56:59;;;;;;;41.77;20.67;;;4.10;1.00;;;;;;4996793;28;20527;-54
2022/12/01 03:59:26;;;;;;;43.70;19.60;;;4.10;1.00;;;;;;4996476;28;21051;-53
2022/12/01 04:01:52;;;;;;;48.97;23.00;;;4.10;1.00;;;;;;4996948;28;20927;-55
2022/12/01 04:04:17;;;;;;;46.43;22.03;;;4.10;1.00;;;;;;4996783;28;20399;-54
2022/12/01 04:06:49;;;;;;;41.87;20.63;;;4.10;1.00;;;;;;4996453;28;20191;-54
2022/12/01 04:09:15;;;;;;;46.83;20.70;;;4.10;1.00;;;;;;4996562;28;20272;-56
2022/12/01 04:14:25;;;;;;;47.10;20.77;;;4.10;1.00;;;;;;4996505;28;20567;-54
2022/12/01 04:16:50;;;;;;;43.23;21.40;;;4.10;1.00;;;;;;4996633;28;20531;-54
2022/12/01 04:19:16;;;;;;;45.03;22.00;;;4.10;1.00;;;;;;4978700;28;20189;-55
2022/12/01 04:21:42;;;;;;;56.17;22.93;;;4.00;1.00;;;;;;4996169;28;20174;-54
2022/12/01 04:24:07;;;;;;;48.87;22.43;;;4.10;1.00;;;;;;4995998;28;20275;-53
2022/12/01 04:26:35;;;;;;;48.33;21.50;;;4.10;1.00;;;;;;4996295;28;20202;-54
2022/12/01 04:29:02;;;;;;;55.90;23.50;;;4.20;1.00;;;;;;4995951;28;20502;-55
2022/12/01 04:31:28;;;;;;;58.27;25.67;;;4.20;1.00;;;;;;4996080;28;20866;-55
2022/12/01 04:33:55;;;;;;;48.83;23.30;;;4.10;1.00;;;;;;4995965;28;20515;-54
2022/12/01 04:36:21;;;;;;;52.83;23.83;;;4.10;1.00;;;;;;4995681;28;20280;-55
2022/12/01 04:38:47;;;;;;;48.30;23.33;;;4.20;1.00;;;;;;4995827;28;20465;-54
2022/12/01 04:41:13;;;;;;;50.50;23.53;;;4.10;1.00;;;;;;4996019;28;20436;-55
2022/12/01 04:43:40;;;;;;;53.20;22.53;;;4.20;1.00;;;;;;4995902;28;20273;-56
2022/12/01 04:46:06;;;;;;;56.50;23.13;;;4.10;1.00;;;;;;4995488;28;20453;-52
2022/12/01 04:48:36;;;;;;;64.20;25.70;;;4.00;1.00;;;;;;4995550;28;20432;-55
2022/12/01 04:51:03;;;;;;;58.33;24.70;;;3.90;1.00;;;;;;4995634;28;20424;-55
2022/12/01 04:53:29;;;;;;;53.50;24.57;;;3.90;1.00;;;;;;4995541;28;20418;-55
2022/12/01 04:55:55;;;;;;;54.60;23.17;;;3.80;1.00;;;;;;4994871;28;20505;-55
2022/12/01 04:58:20;;;;;;;58.63;24.47;;;3.80;1.00;;;;;;4999969;28;20203;-56
2022/12/01 05:00:46;;;;;;;55.00;22.87;;;3.80;1.00;;;;;;4999702;28;20655;-55
2022/12/01 05:03:11;;;;;;;50.23;22.63;;;3.70;1.00;;;;;;5002080;28;20188;-56
2022/12/01 05:05:37;;;;;;;57.40;24.83;;;3.70;1.00;;;;;;4995628;28;20545;-56
2022/12/01 05:08:03;;;;;;;50.10;23.37;;;3.70;1.00;;;;;;5004157;28;20189;-56
2022/12/01 05:10:29;;;;;;;55.23;24.10;;;3.60;1.00;;;;;;4997641;28;20197;-55
2022/12/01 05:12:56;;;;;;;57.13;23.17;;;3.60;1.00;;;;;;4993102;28;20231;-55
2022/12/01 05:15:22;;;;;;;51.50;22.93;;;3.40;1.00;;;;;;4995458;28;20599;-55
2022/12/01 05:17:48;;;;;;;62.10;25.53;;;3.50;1.00;;;;;;4995394;28;20523;-54
2022/12/01 05:23:05;;;;;;;51.00;23.00;;;3.50;1.00;;;;;;4995473;28;20192;-53
2022/12/01 05:25:30;;;;;;;58.07;24.13;;;3.60;1.00;;;;;;4994967;28;20486;-53
2022/12/01 05:27:56;;;;;;;48.97;22.47;;;3.70;1.00;;;;;;4995109;28;20436;-55
2022/12/01 05:30:22;;;;;;;55.73;23.87;;;3.80;1.00;;;;;;4994894;28;20284;-54
2022/12/01 05:32:47;;;;;;;56.67;25.03;;;3.70;1.00;;;;;;4994507;28;20559;-55
2022/12/01 05:35:13;;;;;;;59.83;24.53;;;3.70;1.00;;;;;;4994975;28;20686;-55
2022/12/01 05:37:38;;;;;;;57.93;25.50;;;3.70;1.00;;;;;;4994532;28;20205;-53
2022/12/01 05:40:05;;;;;;;52.40;23.47;;;3.60;1.00;;;;;;4994304;28;20195;-54
2022/12/01 05:42:30;;;;;;;68.83;26.60;;;3.60;1.00;;;;;;4994708;28;20177;-55
2022/12/01 05:44:56;;;;;;;55.40;26.00;;;3.50;1.00;;;;;;4977124;28;20486;-53
2022/12/01 05:47:22;;;;;;;54.27;24.40;;;3.60;1.00;;;;;;4994546;28;20722;-55
2022/12/01 05:49:47;;;;;;;60.43;26.00;;;3.60;1.00;;;;;;4994749;28;20213;-54
2022/12/01 05:52:13;;;;;;;64.23;24.50;;;3.50;1.00;;;;;;4994193;28;20185;-55
2022/12/01 05:54:38;;;;;;;65.83;26.07;;;3.60;1.00;;;;;;4994399;28;20189;-54
2022/12/01 05:57:04;;;;;;;61.10;26.60;;;3.50;1.00;;;;;;4994140;28;20209;-55
2022/12/01 05:59:30;;;;;;;61.47;25.87;;;3.50;1.00;;;;;;4976727;28;20207;-54
2022/12/01 06:01:55;;;;;;;64.23;24.70;;;3.60;1.00;;;;;;4994411;28;20177;-54
2022/12/01 06:04:21;;;;;;;54.10;25.47;;;3.70;1.00;;;;;;4994049;28;20184;-54
2022/12/01 06:06:46;;;;;;;57.20;25.10;;;3.80;1.00;;;;;;4994253;28;20189;-55
2022/12/01 06:09:12;;;;;;;53.87;26.40;;;3.90;1.00;;;;;;5004527;28;20280;-55
2022/12/01 06:11:37;;;;;;;47.17;21.70;;;4.00;1.00;;;;;;5013549;28;20564;-54
2022/12/01 06:14:03;;;;;;;44.97;22.27;;;4.00;1.00;;;;;;4996077;28;20186;-55
2022/12/01 06:16:29;;;;;;;44.20;21.33;;;4.00;1.00;;;;;;4994076;28;20185;-55
2022/12/01 06:18:54;;;;;;;53.10;23.50;;;4.00;1.00;;;;;;4993981;28;20337;-56
2022/12/01 06:21:20;;;;;;;43.60;22.43;;;4.00;1.00;;;;;;4993904;28;20207;-55
2022/12/01 06:23:45;;;;;;;50.33;20.93;;;4.00;1.00;;;;;;4993760;28;20188;-56
2022/12/01 06:26:11;;;;;;;58.40;25.37;;;3.80;1.00;;;;;;4993676;28;20550;-56
2022/12/01 06:28:37;;;;;;;52.93;23.37;;;3.80;1.00;;;;;;4993868;28;20265;-56
2022/12/01 06:31:02;;;;;;;50.70;24.17;;;3.80;1.00;;;;;;5006807;28;20634;-55
2022/12/01 06:33:28;;;;;;;61.83;26.63;;;3.70;1.00;;;;;;5012093;28;20188;-59
2022/12/01 06:36:01;;;;;;;58.10;24.60;;;3.80;1.00;;;;;;4993629;28;20185;-57
2022/12/01 06:38:30;;;;;;;58.20;24.67;;;3.80;1.00;;;;;;4993485;28;20217;-56
2022/12/01 06:40:56;;;;;;;56.40;25.20;;;3.90;1.00;;;;;;4993427;28;20432;-57
2022/12/01 06:43:21;;;;;;;56.23;24.83;;;5.30;1.00;;;;;;4993345;28;20435;-56
2022/12/01 06:45:47;;;;;;;64.57;26.87;;;3.90;1.00;;;;;;4993399;28;20212;-56
2022/12/01 06:48:13;;;;;;;63.43;23.90;;;4.00;1.00;;;;;;4993716;28;20185;-57
2022/12/01 06:50:39;;;;;;;63.63;24.20;;;4.00;1.00;;;;;;4993599;28;20197;-55
2022/12/01 06:53:04;;;;;;;62.33;26.73;;;4.10;1.00;;;;;;4993482;28;20185;-55
2022/12/01 06:55:30;;;;;;;58.10;26.40;;;4.10;1.00;;;;;;4993468;28;20440;-56
2022/12/01 06:57:58;;;;;;;52.60;25.60;;;4.10;1.00;;;;;;4993492;28;20708;-55
2022/12/01 07:00:24;;;;;;;57.53;25.10;;;4.10;1.00;;;;;;4993572;28;20268;-56
2022/12/01 07:02:50;;;;;;;53.77;24.37;;;4.10;1.00;;;;;;4993431;28;20523;-56
2022/12/01 07:05:15;;;;;;;60.40;26.00;;;4.20;1.00;;;;;;4993421;28;20190;-57
2022/12/01 07:07:41;;;;;;;56.33;24.33;;;4.20;1.00;;;;;;4993312;28;20195;-55
2022/12/01 07:10:08;;;;;;;53.80;24.37;;;4.20;1.00;;;;;;4993143;28;20546;-55
2022/12/01 07:12:34;;;;;;;53.27;24.90;;;4.20;1.00;;;;;;4993243;28;20189;-56
2022/12/01 07:15:00;;;;;;;60.60;26.97;;;3.90;1.00;;;;;;4993488;28;20948;-56
2022/12/01 07:17:26;;;;;;;56.60;24.70;;;3.80;1.00;;;;;;4993177;28;20268;-55
2022/12/01 07:19:52;;;;;;;59.03;25.50;;;3.80;1.00;;;;;;4994979;28;20433;-56
2022/12/01 07:22:18;;;;;;;51.20;25.47;;;3.80;1.00;;;;;;4997348;28;20428;-57
2022/12/01 07:24:43;;;;;;;56.37;25.40;;;3.90;1.00;;;;;;4997229;28;20260;-54
2022/12/01 07:27:09;;;;;;;61.77;25.20;;;3.90;1.00;;;;;;4997290;28;20438;-56
2022/12/01 07:29:34;;;;;;;75.97;27.93;;;3.90;1.00;;;;;;4996671;28;20542;-55
2022/12/01 07:32:00;;;;;;;66.33;26.27;;;3.70;1.00;;;;;;4996926;28;20229;-56
2022/12/01 07:34:26;;;;;;;53.17;25.77;;;3.80;1.00;;;;;;4997172;28;20192;-55
2022/12/01 07:36:51;;;;;;;61.80;26.53;;;3.80;1.00;;;;;;4996876;28;20189;-54
2022/12/01 07:39:17;;;;;;;71.43;30.30;;;3.80;1.00;;;;;;4997242;28;20536;-55
2022/12/01 07:41:42;;;;;;;60.53;26.43;;;3.80;1.00;;;;;;4996790;28;20645;-56
2022/12/01 07:44:09;;;;;;;64.73;28.73;;;3.80;1.00;;;;;;4996950;28;20181;-57
2022/12/01 07:46:35;;;;;;;60.20;23.90;;;3.80;1.00;;;;;;4996696;28;20235;-56
2022/12/01 07:49:05;;;;;;;58.77;26.20;;;3.80;1.00;;;;;;4996632;28;20440;-55
2022/12/01 07:51:31;;;;;;;51.30;24.60;;;3.80;1.00;;;;;;4996924;28;20431;-55
2022/12/01 07:54:01;;;;;;;52.73;25.27;;;3.70;1.00;;;;;;4996567;28;20469;-57
2022/12/01 07:56:27;;;;;;;64.40;27.10;;;3.60;1.00;;;;;;4996512;28;20197;-55
2022/12/01 07:58:53;;;;;;;56.33;26.57;;;3.70;1.00;;;;;;4996838;28;20471;-57
2022/12/01 08:01:22;;;;;;;57.43;25.20;;;3.70;1.00;;;;;;4996267;28;20440;-56
2022/12/01 08:03:51;;;;;;;59.23;27.27;;;3.80;1.00;;;;;;4996505;28;20335;-57
2022/12/01 08:06:18;;;;;;;57.90;28.60;;;3.90;1.00;;;;;;4996410;28;20439;-57
2022/12/01 08:08:44;;;;;;;61.60;27.43;;;4.00;1.00;;;;;;4996113;28;20439;-58
2022/12/01 08:11:19;;;;;;;55.33;26.70;;;4.10;1.00;;;;;;4996350;28;20759;-56
2022/12/01 08:13:45;;;;;;;58.03;28.20;;;4.10;1.00;;;;;;4996487;28;20188;-55
2022/12/01 08:16:13;;;;;;;60.03;28.90;;;4.10;1.00;;;;;;4996419;28;20439;-57
2022/12/01 08:18:40;;;;;;;61.23;27.10;;;4.00;1.00;;;;;;4996658;28;20524;-54
2022/12/01 08:21:08;;;;;;;65.53;30.70;;;4.10;1.00;;;;;;4996038;28;20959;-56
2022/12/01 08:23:33;;;;;;;63.87;28.87;;;4.10;1.00;;;;;;4996200;28;20951;-56
2022/12/01 08:26:01;;;;;;;63.87;30.13;;;4.10;1.00;;;;;;4996215;28;20515;-55
2022/12/01 08:28:26;;;;;;;62.63;30.17;;;4.20;1.00;;;;;;4996150;28;20201;-55
2022/12/01 08:30:52;;;;;;;61.10;28.70;;;4.10;1.00;;;;;;4995363;28;20410;-55
2022/12/01 08:33:17;;;;;;;63.53;28.87;;;4.10;1.00;;;;;;4995749;28;20235;-55
2022/12/01 08:35:43;;;;;;;68.23;28.13;;;4.20;1.00;;;;;;5001956;28;20192;-57
2022/12/01 08:38:09;;;;;;;70.60;31.83;;;4.20;1.00;;;;;;5015534;28;20213;-57
2022/12/01 08:40:35;;;;;;;70.40;30.27;;;4.50;1.00;;;;;;5015666;28;20189;-57
2022/12/01 08:43:00;;;;;;;63.03;29.90;;;4.40;1.00;;;;;;5015257;28;20431;-55
2022/12/01 08:45:26;;;;;;;58.33;27.27;;;4.50;1.00;;;;;;5015569;28;20184;-55
2022/12/01 08:47:53;;;;;;;58.97;29.43;;;4.50;1.00;;;;;;5015415;28;20729;-55
2022/12/01 08:50:19;;;;;;;68.60;32.10;;;4.30;1.00;;;;;;5015457;28;20634;-56
2022/12/01 08:52:45;;;;;;;58.40;29.40;;;4.10;1.00;;;;;;5015205;28;20530;-57
2022/12/01 08:55:11;;;;;;;68.47;33.13;;;4.00;1.00;;;;;;5015001;28;20641;-55
2022/12/01 08:57:36;;;;;;;62.90;30.00;;;4.10;1.00;;;;;;4997403;28;20221;-54
2022/12/01 09:00:03;;;;;;;69.80;32.70;;;4.10;1.00;;;;;;5015159;28;20250;-55
2022/12/01 09:02:28;;;;;;;69.17;30.43;;;4.30;1.00;;;;;;5015232;28;20185;-56
2022/12/01 09:04:54;;;;;;;73.07;31.17;;;4.30;1.00;;;;;;5015273;28;20504;-56
2022/12/01 09:07:20;;;;;;;65.40;29.93;;;4.30;1.00;;;;;;5015069;28;20193;-56
2022/12/01 09:09:45;;;;;;;62.00;31.17;;;4.30;1.00;;;;;;5014634;28;20461;-55
2022/12/01 09:12:11;;;;;;;71.20;30.40;;;4.40;1.00;;;;;;5000632;28;20317;-55
2022/12/01 09:14:39;;;;;;;70.40;31.60;;;4.50;1.00;;;;;;4995232;28;20185;-56
2022/12/01 09:17:07;;;;;;;70.13;31.53;;;4.50;1.00;;;;;;4977847;28;22516;-56
2022/12/01 09:19:33;;;;;;;64.00;31.10;;;4.60;1.00;;;;;;4994872;28;20433;-56
2022/12/01 09:21:59;;;;;;;60.87;28.57;;;4.60;1.00;;;;;;4994470;28;21090;-56
2022/12/01 09:24:25;;;;;;;70.67;29.87;;;4.50;1.00;;;;;;4994706;28;20184;-54
2022/12/01 09:26:55;;;;;;;65.43;32.37;;;4.30;1.00;;;;;;4994970;28;20478;-56
2022/12/01 09:29:20;;;;;;;60.17;28.67;;;4.30;1.00;;;;;;4994933;28;20272;-55
2022/12/01 09:31:46;;;;;;;61.67;28.83;;;4.20;1.00;;;;;;4994855;28;20504;-55
2022/12/01 09:34:17;;;;;;;71.70;34.43;;;4.20;1.00;;;;;;4994997;28;20193;-56
2022/12/01 09:36:44;;;;;;;69.03;32.40;;;4.10;1.00;;;;;;4995170;28;20190;-56
2022/12/01 09:39:14;;;;;;;68.63;30.77;;;4.10;1.00;;;;;;4994631;28;20493;-57
2022/12/01 09:42:02;;;;;;;70.17;31.23;;;4.20;1.00;;;;;;4995108;28;20855;-56
2022/12/01 09:44:34;;;;;;;69.73;32.53;;;4.30;1.00;;;;;;4994548;28;20448;-56
2022/12/01 09:47:06;;;;;;;63.43;29.93;;;4.30;1.00;;;;;;4994349;28;20482;-56
2022/12/01 09:49:44;;;;;;;67.47;29.70;;;4.40;1.00;;;;;;4994541;28;20925;-56
2022/12/01 09:52:15;;;;;;;63.40;29.63;;;4.40;1.00;;;;;;4994508;28;20439;-55
2022/12/01 09:54:41;;;;;;;69.27;31.03;;;4.50;1.00;;;;;;4994607;28;20474;-56
2022/12/01 09:57:16;;;;;;;59.60;28.63;;;4.40;1.00;;;;;;4994518;28;20471;-56
2022/12/01 09:59:43;;;;;;;77.20;31.43;;;4.50;1.00;;;;;;4994423;28;20543;-56
2022/12/01 10:02:53;;;;;;;73.37;32.03;;;4.50;1.00;;;;;;4994298;28;20490;-56
2022/12/01 10:05:25;;;;;;;69.30;29.27;;;4.60;1.00;;;;;;4908276;28;20443;-56
2022/12/01 10:07:59;;;;;;;67.40;30.97;;;4.50;1.00;;;;;;4994179;28;20439;-56
2022/12/01 10:10:33;;;;;;;69.30;30.23;;;4.60;1.00;;;;;;4994303;28;20876;-55
2022/12/01 10:12:59;;;;;;;65.70;30.73;;;4.70;1.00;;;;;;4994015;28;20436;-56
2022/12/01 10:16:04;;;;;;;60.93;29.13;;;4.70;1.00;;;;;;4994161;28;20766;-55
2022/12/01 10:18:44;;;;;;;64.20;29.97;;;4.90;1.00;;;;;;4993628;28;20479;-56
2022/12/01 10:21:51;;;;;;;61.23;30.63;;;4.90;1.00;;;;;;4994023;28;20918;-56
2022/12/01 10:24:44;;;;;;;57.93;28.73;;;4.90;1.00;;;;;;4992882;28;20850;-56
2022/12/01 10:27:28;;;;;;;67.97;30.50;;;4.80;1.00;;;;;;4993679;28;20524;-56
2022/12/01 10:30:08;;;;;;;65.23;30.83;;;4.80;1.00;;;;;;4993780;28;20458;-56
2022/12/01 10:32:39;;;;;;;66.23;32.50;;;4.80;1.00;;;;;;4993800;28;20461;-56
2022/12/01 10:35:05;;;;;;;63.87;31.43;;;4.80;1.00;;;;;;4994010;28;20428;-55
2022/12/01 10:37:31;;;;;;;64.33;30.73;;;4.80;1.00;;;;;;4993550;28;20974;-56
2022/12/01 10:39:57;;;;;;;59.33;29.60;;;5.00;1.00;;;;;;4993765;28;20444;-54
2022/12/01 10:42:39;;;;;;;61.00;29.67;;;4.90;1.00;;;;;;4993817;28;20506;-55
2022/12/01 10:45:13;;;;;;;59.17;28.67;;;5.00;1.00;;;;;;4993375;28;20430;-55
2022/12/01 10:48:17;;;;;;;56.20;29.50;;;5.00;1.00;;;;;;4993138;28;20473;-55
2022/12/01 10:50:48;;;;;;;58.50;29.90;;;5.00;1.00;;;;;;4993475;28;20930;-56
2022/12/01 10:53:31;;;;;;;57.33;28.27;;;5.10;1.00;;;;;;4993393;28;20490;-54
2022/12/01 10:56:04;;;;;;;54.80;27.90;;;5.10;1.00;;;;;;4992840;28;20531;-56
2022/12/01 10:58:32;;;;;;;52.37;26.83;;;5.10;1.00;;;;;;4993299;28;20771;-54
2022/12/01 11:01:03;;;;;;;54.93;26.93;;;5.20;1.00;;;;;;4993190;28;20432;-57
2022/12/01 11:03:32;;;;;;;56.07;28.27;;;5.10;1.00;;;;;;4993314;28;20490;-55
2022/12/01 11:06:00;;;;;;;59.07;30.20;;;5.10;1.00;;;;;;4993098;28;20494;-57
2022/12/01 11:09:04;;;;;;;57.57;29.53;;;5.20;1.00;;;;;;4993512;28;20462;-56
2022/12/01 11:11:37;;;;;;;58.60;29.90;;;5.20;1.00;;;;;;4939715;28;20490;-56
2022/12/01 11:14:15;;;;;;;60.10;29.77;;;5.30;1.00;;;;;;4993232;28;20434;-56
2022/12/01 11:16:43;;;;;;;59.53;29.80;;;5.30;1.00;;;;;;4993862;28;20834;-55
2022/12/01 11:19:33;;;;;;;58.83;27.90;;;5.10;1.00;;;;;;4993323;28;20966;-56
2022/12/01 11:22:02;;;;;;;52.20;26.37;;;4.90;1.00;;;;;;4993043;28;20433;-55
2022/12/01 11:25:03;;;;;;;52.13;26.43;;;4.80;1.00;;;;;;4992678;28;20436;-55
2022/12/01 11:27:44;;;;;;;53.40;25.93;;;4.80;1.00;;;;;;4894946;29;20488;-55
2022/12/01 11:30:23;;;;;;;65.27;29.60;;;4.80;1.00;;;;;;4982917;28;20447;-55
2022/12/01 11:32:59;;;;;;;55.23;27.97;;;4.80;1.00;;;;;;4993265;28;20803;-55
2022/12/01 11:35:34;;;;;;;55.70;29.10;;;4.70;1.00;;;;;;4992986;28;20449;-56
2022/12/01 11:38:02;;;;;;;60.53;28.27;;;4.60;1.00;;;;;;4992937;28;20475;-56
2022/12/01 11:40:37;;;;;;;61.83;29.07;;;4.60;1.00;;;;;;4993018;28;20437;-55
2022/12/01 11:43:05;;;;;;;50.83;26.03;;;4.70;1.00;;;;;;4994597;28;20435;-57
2022/12/01 11:45:39;;;;;;;50.00;25.33;;;4.70;1.00;;;;;;5006568;28;20557;-58
2022/12/01 11:48:11;;;;;;;50.87;27.20;;;4.80;1.00;;;;;;5003428;28;20797;-57
2022/12/01 11:50:40;;;;;;;54.13;28.67;;;4.80;1.00;;;;;;5012367;28;20440;-56
2022/12/01 11:53:29;;;;;;;63.20;29.97;;;4.90;1.00;;;;;;4980311;28;20442;-55
2022/12/01 11:56:16;;;;;;;61.57;29.33;;;5.00;1.00;;;;;;5002584;28;20444;-55
2022/12/01 11:58:44;;;;;;;51.53;26.57;;;5.00;1.00;;;;;;4999498;28;20973;-55
2022/12/01 12:01:27;;;;;;;60.87;27.73;;;5.00;1.00;;;;;;4992802;28;20773;-57
2022/12/01 12:04:31;;;;;;;59.10;27.50;;;5.10;1.00;;;;;;4973542;28;20408;-55
2022/12/01 12:07:34;;;;;;;54.20;28.47;;;5.10;1.00;;;;;;4960914;28;20439;-56
2022/12/01 12:10:16;;;;;;;60.73;28.40;;;5.20;1.00;;;;;;4996313;28;20431;-57
2022/12/01 12:13:16;;;;;;;53.53;26.00;;;5.20;1.00;;;;;;4996433;28;20794;-54
2022/12/01 12:16:17;;;;;;;57.40;28.67;;;5.10;1.00;;;;;;4988030;28;20430;-56
2022/12/01 12:18:49;;;;;;;63.50;30.17;;;5.10;1.00;;;;;;4978452;28;20521;-57
2022/12/01 12:21:42;;;;;;;55.67;28.73;;;5.30;1.00;;;;;;4983492;28;20440;-56
2022/12/01 12:24:22;;;;;;;58.40;28.77;;;5.30;1.00;;;;;;4976928;28;20431;-56
2022/12/01 12:26:58;;;;;;;57.53;29.23;;;5.20;1.00;;;;;;4976677;28;20540;-56
2022/12/01 12:29:42;;;;;;;58.07;27.40;;;5.20;1.00;;;;;;4990509;28;20787;-56
2022/12/01 12:32:32;;;;;;;53.10;26.00;;;5.10;1.00;;;;;;4996129;28;20817;-56
2022/12/01 12:35:39;;;;;;;61.57;28.73;;;5.10;1.00;;;;;;4996216;28;20459;-55
2022/12/01 12:38:35;;;;;;;55.53;28.87;;;5.00;1.00;;;;;;4935717;29;20467;-55
2022/12/01 12:41:36;;;;;;;54.27;27.37;;;5.00;1.00;;;;;;4935950;29;20438;-56
2022/12/01 12:44:19;;;;;;;46.07;26.60;;;5.10;1.00;;;;;;4914890;29;20475;-56
2022/12/01 12:47:15;;;;;;;52.23;27.87;;;5.10;1.00;;;;;;4988817;28;20470;-55
2022/12/01 12:49:48;;;;;;;52.63;27.07;;;5.10;1.00;;;;;;5001090;28;20441;-57
2022/12/01 12:52:33;;;;;;;54.30;26.87;;;5.10;1.00;;;;;;4995775;28;20484;-55
2022/12/01 12:55:02;;;;;;;53.33;27.23;;;5.10;1.00;;;;;;4995712;28;20480;-55
2022/12/01 12:57:38;;;;;;;51.93;28.33;;;5.00;1.00;;;;;;4995232;28;20793;-55
2022/12/01 13:00:06;;;;;;;49.97;27.77;;;7.00;1.00;;;;;;4995865;28;20440;-56
2022/12/01 13:02:43;;;;;;;63.20;27.93;;;5.00;1.00;;;;;;4995670;28;20432;-54
2022/12/01 13:05:15;;;;;;;60.07;29.10;;;5.10;1.00;;;;;;4995487;28;20438;-55
2022/12/01 13:07:50;;;;;;;60.57;29.90;;;5.20;1.00;;;;;;4995674;28;20413;-55
2022/12/01 13:10:28;;;;;;;62.37;31.17;;;5.20;1.00;;;;;;4995417;28;20477;-57
2022/12/01 13:13:17;;;;;;;55.20;28.93;;;5.20;1.00;;;;;;4995370;28;20809;-54
2022/12/01 13:15:44;;;;;;;54.93;28.93;;;5.10;1.00;;;;;;4995306;28;20436;-56
2022/12/01 13:18:21;;;;;;;57.83;28.40;;;5.10;1.00;;;;;;4994729;28;20473;-55